createdAt,value
2022-10-24T00:02:20.045Z,58.53
2022-10-24T00:04:50.557Z,60.27
2022-10-24T00:07:18.516Z,95.43
2022-10-24T00:09:47.949Z,64.63
2022-10-24T00:12:15.849Z,49.77
2022-10-24T00:14:43.378Z,99.20
2022-10-24T00:17:11.036Z,164.77
2022-10-24T00:19:38.599Z,130.00
2022-10-24T00:22:11.200Z,188.30
2022-10-24T00:24:40.894Z,95.63
2022-10-24T00:27:16.005Z,145.87
2022-10-24T00:29:43.872Z,52.53
2022-10-24T00:32:11.626Z,147.77
2022-10-24T00:34:42.547Z,66.53
2022-10-24T00:37:10.163Z,42.60
2022-10-24T00:39:43.700Z,37.10
2022-10-24T00:42:12.720Z,62.70
2022-10-24T00:44:42.893Z,34.43
2022-10-24T00:47:30.006Z,171.93
2022-10-24T00:50:12.229Z,75.47
2022-10-24T00:52:49.148Z,64.70
2022-10-24T00:55:17.003Z,46.40
2022-10-24T00:57:54.381Z,49.50
2022-10-24T01:00:29.144Z,28.83
2022-10-24T01:02:59.955Z,120.45
2022-10-24T01:05:37.197Z,60.97
2022-10-24T01:08:30.873Z,88.27
2022-10-24T01:11:17.619Z,127.50
2022-10-24T01:14:30.580Z,169.37
2022-10-24T01:17:16.397Z,34.40
2022-10-24T01:22:57.073Z,66.60
2022-10-24T01:25:49.548Z,93.43
2022-10-24T01:28:50.609Z,70.67
2022-10-24T01:31:54.130Z,156.67
2022-10-24T01:35:05.864Z,146.07
2022-10-24T01:37:48.364Z,166.33
2022-10-24T01:41:05.660Z,164.93
2022-10-24T01:46:58.229Z,151.90
2022-10-24T01:49:42.348Z,257.90
2022-10-24T01:52:44.271Z,509.47
2022-10-24T01:55:41.933Z,188.70
2022-10-24T01:58:09.765Z,122.40
2022-10-24T02:00:37.720Z,165.33
2022-10-24T02:03:40.120Z,67.53
2022-10-24T02:06:17.046Z,49.03
2022-10-24T02:08:49.701Z,404.77
2022-10-24T02:11:17.255Z,56.63
2022-10-24T02:13:59.988Z,418.97
2022-10-24T02:16:27.676Z,407.07
2022-10-24T02:18:57.135Z,404.30
2022-10-24T02:21:45.913Z,514.10
2022-10-24T02:24:37.220Z,616.43
2022-10-24T02:27:29.237Z,463.00
2022-10-24T02:30:19.786Z,353.83
2022-10-24T02:33:00.231Z,347.37
2022-10-24T02:35:33.518Z,404.27
2022-10-24T02:38:28.212Z,410.30
2022-10-24T02:40:57.303Z,240.27
2022-10-24T02:43:25.867Z,524.47
2022-10-24T02:45:54.778Z,461.13
2022-10-24T02:48:25.763Z,514.47
2022-10-24T02:50:53.478Z,395.13
2022-10-24T02:53:24.511Z,382.30
2022-10-24T02:55:51.993Z,370.13
2022-10-24T02:58:19.661Z,350.27
2022-10-24T03:00:47.425Z,291.60
2022-10-24T03:03:14.887Z,304.80
2022-10-24T03:05:42.451Z,393.57
2022-10-24T03:08:09.914Z,370.77
2022-10-24T03:10:37.326Z,357.57
2022-10-24T03:13:07.426Z,366.17
2022-10-24T03:15:35.036Z,237.40
2022-10-24T03:18:02.602Z,424.10
2022-10-24T03:20:30.024Z,489.97
2022-10-24T03:22:57.703Z,396.00
2022-10-24T03:25:25.360Z,425.93
2022-10-24T03:27:53.012Z,351.13
2022-10-24T03:30:20.483Z,254.07
2022-10-24T03:32:49.129Z,303.23
2022-10-24T03:35:16.924Z,391.57
2022-10-24T03:37:47.229Z,321.20
2022-10-24T03:40:14.799Z,317.23
2022-10-24T03:42:42.570Z,424.40
2022-10-24T03:45:10.535Z,205.50
2022-10-24T03:47:37.961Z,324.20
2022-10-24T03:50:06.148Z,382.47
2022-10-24T03:52:33.762Z,251.87
2022-10-24T03:55:01.221Z,273.43
2022-10-24T03:57:28.738Z,340.63
2022-10-24T03:59:56.083Z,359.33
2022-10-24T04:02:23.523Z,229.43
2022-10-24T04:04:50.980Z,287.23
2022-10-24T04:07:18.722Z,191.57
2022-10-24T04:09:46.139Z,352.60
2022-10-24T04:12:13.557Z,259.03
2022-10-24T04:14:41.363Z,210.10
2022-10-24T04:17:09.309Z,183.90
2022-10-24T04:19:39.586Z,235.70
2022-10-24T04:22:10.166Z,186.23
2022-10-24T04:24:39.706Z,275.93
2022-10-24T04:27:07.877Z,157.43
2022-10-24T04:29:35.712Z,251.17
2022-10-24T04:32:03.163Z,301.67
2022-10-24T04:34:30.828Z,122.47
2022-10-24T04:36:58.439Z,142.87
2022-10-24T04:39:26.039Z,208.20
2022-10-24T04:41:56.193Z,75.13
2022-10-24T04:44:23.817Z,292.53
2022-10-24T04:46:51.601Z,214.93
2022-10-24T04:49:19.689Z,245.83
2022-10-24T04:51:48.144Z,113.33
2022-10-24T04:54:15.720Z,135.03
2022-10-24T04:56:43.367Z,92.23
2022-10-24T04:59:11.194Z,154.07
2022-10-24T05:01:38.939Z,76.37
2022-10-24T05:04:06.566Z,155.50
2022-10-24T05:06:34.349Z,188.27
2022-10-24T05:09:01.997Z,140.57
2022-10-24T05:11:29.749Z,76.53
2022-10-24T05:13:57.563Z,192.47
2022-10-24T05:16:25.390Z,138.83
2022-10-24T05:18:53.542Z,154.27
2022-10-24T05:21:21.278Z,251.07
2022-10-24T05:23:48.970Z,235.23
2022-10-24T05:26:16.780Z,223.47
2022-10-24T05:28:47.609Z,364.83
2022-10-24T05:31:17.604Z,76.17
2022-10-24T05:33:46.765Z,323.13
2022-10-24T05:36:37.488Z,294.67
2022-10-24T05:39:05.156Z,208.00
2022-10-24T05:41:33.626Z,166.03
2022-10-24T05:44:01.587Z,217.90
2022-10-24T05:46:29.441Z,269.80
2022-10-24T05:48:57.145Z,306.33
2022-10-24T05:51:35.679Z,344.73
2022-10-24T05:56:39.879Z,388.37
2022-10-24T05:59:09.165Z,212.97
2022-10-24T06:01:37.004Z,118.93
2022-10-24T06:04:06.079Z,116.53
2022-10-24T06:06:34.994Z,169.17
2022-10-24T06:09:02.508Z,266.00
2022-10-24T06:11:32.151Z,396.37
2022-10-24T06:13:59.591Z,290.63
2022-10-24T06:16:27.984Z,162.83
2022-10-24T06:18:55.380Z,140.27
2022-10-24T06:21:22.909Z,151.73
2022-10-24T06:23:50.657Z,101.20
2022-10-24T06:26:21.654Z,84.93
2022-10-24T06:28:51.633Z,88.97
2022-10-24T06:31:21.052Z,65.57
2022-10-24T06:33:48.726Z,78.23
2022-10-24T06:36:16.208Z,78.40
2022-10-24T06:38:44.887Z,66.17
2022-10-24T06:41:13.931Z,62.00
2022-10-24T06:43:42.554Z,70.27
2022-10-24T06:46:11.779Z,74.13
2022-10-24T06:48:39.275Z,65.00
2022-10-24T06:51:07.287Z,62.93
2022-10-24T06:53:35.377Z,75.37
2022-10-24T06:56:04.509Z,65.13
2022-10-24T06:58:36.528Z,53.70
2022-10-24T07:01:12.780Z,72.87
2022-10-24T07:03:40.338Z,63.63
2022-10-24T07:06:13.220Z,73.90
2022-10-24T07:08:40.599Z,64.77
2022-10-24T07:11:08.027Z,81.87
2022-10-24T07:13:35.478Z,86.63
2022-10-24T07:16:03.563Z,85.43
2022-10-24T07:18:31.322Z,88.53
2022-10-24T07:21:05.341Z,122.50
2022-10-24T07:23:34.229Z,78.87
2022-10-24T07:26:17.151Z,104.13
2022-10-24T07:28:46.847Z,97.07
2022-10-24T07:31:17.400Z,158.80
2022-10-24T07:33:44.896Z,139.17
2022-10-24T07:36:17.994Z,87.77
2022-10-24T07:38:45.396Z,117.00
2022-10-24T07:41:12.847Z,140.37
2022-10-24T07:43:40.825Z,121.30
2022-10-24T07:46:11.171Z,89.13
2022-10-24T07:48:58.448Z,84.00
2022-10-24T07:51:28.597Z,98.43
2022-10-24T07:53:57.570Z,71.50
2022-10-24T07:56:24.979Z,111.60
2022-10-24T07:58:52.485Z,69.63
2022-10-24T08:01:23.012Z,104.57
2022-10-24T08:03:50.680Z,84.60
2022-10-24T08:06:20.772Z,65.50
2022-10-24T08:08:48.154Z,78.50
2022-10-24T08:15:09.874Z,63.67
2022-10-24T08:17:37.471Z,64.10
2022-10-24T08:20:06.597Z,60.83
2022-10-24T08:22:34.150Z,77.83
2022-10-24T08:25:02.333Z,67.10
2022-10-24T08:27:30.498Z,54.33
2022-10-24T08:29:58.273Z,58.17
2022-10-24T08:32:25.680Z,63.83
2022-10-24T08:34:53.356Z,63.40
2022-10-24T08:37:20.789Z,56.90
2022-10-24T08:39:48.617Z,55.97
2022-10-24T08:42:18.053Z,53.80
2022-10-24T08:44:47.342Z,71.20
2022-10-24T08:47:47.124Z,72.10
2022-10-24T08:50:33.769Z,56.30
2022-10-24T08:53:06.570Z,54.70
2022-10-24T08:55:55.534Z,55.43
2022-10-24T08:58:48.413Z,52.83
2022-10-24T09:01:42.039Z,56.43
2022-10-24T09:04:12.872Z,56.33
2022-10-24T09:06:40.592Z,59.00
2022-10-24T09:09:47.349Z,61.70
2022-10-24T09:12:17.153Z,52.13
2022-10-24T09:14:47.392Z,56.47
2022-10-24T09:17:35.647Z,56.97
2022-10-24T09:20:42.411Z,51.17
2022-10-24T09:23:13.749Z,54.93
2022-10-24T09:25:45.209Z,68.93
2022-10-24T09:28:13.101Z,63.73
2022-10-24T09:30:40.950Z,62.17
2022-10-24T09:33:30.905Z,68.40
2022-10-24T09:36:01.140Z,61.73
2022-10-24T09:38:49.295Z,66.93
2022-10-24T09:41:36.431Z,54.40
2022-10-24T09:44:04.821Z,55.70
2022-10-24T09:46:45.347Z,61.20
2022-10-24T09:49:36.013Z,60.27
2022-10-24T09:52:08.701Z,67.43
2022-10-24T09:54:37.196Z,72.90
2022-10-24T09:57:26.805Z,70.57
2022-10-24T10:00:00.946Z,71.17
2022-10-24T10:03:08.520Z,63.33
2022-10-24T10:05:46.193Z,65.23
2022-10-24T10:08:21.066Z,65.47
2022-10-24T10:11:11.437Z,61.15
2022-10-24T10:13:55.654Z,68.37
2022-10-24T10:16:48.342Z,51.03
2022-10-24T10:19:37.063Z,58.77
2022-10-24T10:22:07.193Z,60.40
2022-10-24T10:24:54.629Z,60.37
2022-10-24T10:27:40.818Z,61.67
2022-10-24T10:30:28.036Z,61.20
2022-10-24T10:33:10.343Z,58.73
2022-10-24T10:36:01.850Z,60.73
2022-10-24T10:38:52.603Z,53.77
2022-10-24T10:41:46.051Z,46.27
2022-10-24T10:44:53.017Z,56.90
2022-10-24T10:47:47.569Z,54.43
2022-10-24T10:50:42.792Z,55.70
2022-10-24T10:53:37.671Z,48.80
2022-10-24T10:56:31.689Z,50.80
2022-10-24T10:59:29.346Z,52.20
2022-10-24T11:02:36.656Z,54.90
2022-10-24T11:05:44.868Z,45.40
2022-10-24T11:08:39.882Z,51.07
2022-10-24T11:11:14.211Z,53.13
2022-10-24T11:13:46.134Z,49.17
2022-10-24T11:16:22.106Z,46.10
2022-10-24T11:18:52.405Z,40.23
2022-10-24T11:21:24.599Z,40.20
2022-10-24T11:24:31.411Z,38.47
2022-10-24T11:27:09.737Z,40.60
2022-10-24T11:30:02.877Z,35.23
2022-10-24T11:32:55.282Z,39.03
2022-10-24T11:35:33.610Z,35.17
2022-10-24T11:38:21.746Z,32.40
2022-10-24T11:40:58.612Z,28.70
2022-10-24T11:43:36.431Z,30.90
2022-10-24T11:46:23.759Z,25.23
2022-10-24T11:48:58.004Z,27.90
2022-10-24T11:51:51.815Z,24.25
2022-10-24T11:54:30.035Z,20.90
2022-10-24T11:57:03.262Z,22.63
2022-10-24T11:59:30.968Z,24.60
2022-10-24T12:02:37.920Z,25.33
2022-10-24T12:05:44.860Z,26.20
2022-10-24T12:08:46.674Z,23.33
2022-10-24T12:11:54.029Z,25.27
2022-10-24T12:15:00.818Z,23.63
2022-10-24T12:17:54.256Z,20.50
2022-10-24T12:20:24.506Z,25.27
2022-10-24T12:22:53.112Z,21.73
2022-10-24T12:25:45.672Z,22.00
2022-10-24T12:28:21.758Z,21.70
2022-10-24T12:31:11.138Z,21.33
2022-10-24T12:33:38.600Z,25.63
2022-10-24T12:36:06.287Z,26.43
2022-10-24T12:39:05.404Z,28.67
2022-10-24T12:41:52.414Z,25.07
2022-10-24T12:44:40.165Z,29.93
2022-10-24T12:47:43.922Z,29.17
2022-10-24T12:50:50.831Z,25.87
2022-10-24T12:53:30.819Z,29.03
2022-10-24T12:56:16.845Z,29.93
2022-10-24T12:58:46.004Z,28.97
2022-10-24T13:01:34.524Z,29.83
2022-10-24T13:04:32.487Z,30.57
2022-10-24T13:07:39.364Z,29.83
2022-10-24T13:10:46.208Z,30.20
2022-10-24T13:13:54.938Z,33.67
2022-10-24T13:17:02.002Z,29.27
2022-10-24T13:19:31.347Z,32.10
2022-10-24T13:22:00.384Z,37.67
2022-10-24T13:24:47.490Z,33.97
2022-10-24T13:27:24.922Z,39.23
2022-10-24T13:30:27.778Z,39.07
2022-10-24T13:33:32.344Z,40.00
2022-10-24T13:36:18.430Z,42.43
2022-10-24T13:39:09.118Z,45.60
2022-10-24T13:41:44.739Z,44.80
2022-10-24T13:44:38.761Z,45.80
2022-10-24T13:47:31.769Z,41.27
2022-10-24T13:50:23.710Z,45.57
2022-10-24T13:53:03.777Z,40.43
2022-10-24T13:55:38.955Z,44.77
2022-10-24T14:01:17.593Z,36.07
2022-10-24T14:03:45.699Z,37.03
2022-10-24T14:06:13.404Z,34.47
2022-10-24T14:08:56.269Z,36.20
2022-10-24T14:11:31.099Z,27.67
2022-10-24T14:14:05.751Z,32.83
2022-10-24T14:16:34.851Z,40.73
2022-10-24T14:19:27.095Z,32.83
2022-10-24T14:21:57.493Z,32.80
2022-10-24T14:24:25.058Z,28.57
2022-10-24T14:26:54.281Z,31.13
2022-10-24T14:29:43.496Z,29.43
2022-10-24T14:32:15.743Z,28.50
2022-10-24T14:34:43.444Z,28.97
2022-10-24T14:37:26.955Z,28.57
2022-10-24T14:39:55.559Z,31.53
2022-10-24T14:42:23.211Z,29.87
2022-10-24T14:44:54.853Z,35.20
2022-10-24T14:47:34.297Z,30.50
2022-10-24T14:50:01.931Z,31.27
2022-10-24T14:52:48.909Z,31.07
2022-10-24T14:55:21.571Z,40.03
2022-10-24T14:57:51.341Z,30.20
2022-10-24T15:00:22.852Z,31.77
2022-10-24T15:02:51.684Z,36.87
2022-10-24T15:05:39.781Z,35.13
2022-10-24T15:08:35.029Z,34.27
2022-10-24T15:11:26.508Z,29.60
2022-10-24T15:14:06.273Z,36.40
2022-10-24T15:16:39.223Z,32.97
2022-10-24T15:19:13.503Z,30.00
2022-10-24T15:21:46.652Z,33.83
2022-10-24T15:24:25.901Z,33.33
2022-10-24T15:26:53.851Z,32.90
2022-10-24T15:29:23.466Z,34.40
2022-10-24T15:31:52.233Z,37.87
2022-10-24T15:34:21.837Z,37.63
2022-10-24T15:36:51.425Z,36.97
2022-10-24T15:39:22.357Z,32.93
2022-10-24T15:41:50.049Z,35.13
2022-10-24T15:44:37.223Z,38.30
2022-10-24T15:47:04.832Z,40.93
2022-10-24T15:49:32.363Z,40.70
2022-10-24T15:51:59.922Z,43.27
2022-10-24T15:54:27.705Z,42.60
2022-10-24T15:56:56.041Z,47.17
2022-10-24T15:59:26.876Z,40.70
2022-10-24T16:01:57.636Z,41.73
2022-10-24T16:04:25.430Z,45.57
2022-10-24T16:06:53.345Z,46.40
2022-10-24T16:09:25.486Z,47.27
2022-10-24T16:11:53.099Z,44.87
2022-10-24T16:14:22.342Z,41.63
2022-10-24T16:16:49.980Z,46.53
2022-10-24T16:19:17.529Z,45.47
2022-10-24T16:21:45.250Z,41.80
2022-10-24T16:24:13.737Z,43.57
2022-10-24T16:26:41.793Z,43.03
2022-10-24T16:29:09.419Z,43.70
2022-10-24T16:31:37.259Z,39.70
2022-10-24T16:34:04.998Z,47.13
2022-10-24T16:36:33.065Z,41.73
2022-10-24T16:39:00.731Z,42.70
2022-10-24T16:41:28.233Z,47.27
2022-10-24T16:43:57.741Z,47.13
2022-10-24T16:46:27.038Z,41.17
2022-10-24T16:48:55.231Z,43.20
2022-10-24T16:51:32.656Z,45.40
2022-10-24T16:54:01.683Z,41.73
2022-10-24T16:56:29.660Z,37.67
2022-10-24T16:58:57.165Z,42.87
2022-10-24T17:01:27.317Z,45.27
2022-10-24T17:03:55.292Z,44.13
2022-10-24T17:06:22.802Z,40.80
2022-10-24T17:08:50.374Z,43.73
2022-10-24T17:11:43.279Z,40.73
2022-10-24T17:14:05.492Z,40.53
2022-10-24T17:16:33.120Z,40.67
2022-10-24T17:19:14.706Z,44.43
2022-10-24T17:21:43.088Z,49.77
2022-10-24T17:24:11.961Z,44.33
2022-10-24T17:26:39.547Z,43.30
2022-10-24T17:29:08.543Z,46.03
2022-10-24T17:31:36.344Z,44.40
2022-10-24T17:34:03.980Z,47.83
2022-10-24T17:36:36.659Z,47.13
2022-10-24T17:39:13.537Z,53.27
2022-10-24T17:41:41.554Z,51.70
2022-10-24T17:44:16.741Z,45.07
2022-10-24T17:49:16.555Z,44.00
2022-10-24T17:51:47.310Z,44.57
2022-10-24T17:54:15.700Z,45.33
2022-10-24T17:56:43.320Z,53.70
2022-10-24T17:59:11.211Z,44.50
2022-10-24T18:01:38.758Z,45.33
2022-10-24T18:04:06.212Z,49.40
2022-10-24T18:06:33.954Z,45.50
2022-10-24T18:09:01.436Z,44.17
2022-10-24T18:11:28.805Z,46.23
2022-10-24T18:13:56.219Z,47.43
2022-10-24T18:16:26.134Z,46.50
2022-10-24T18:18:56.674Z,41.20
2022-10-24T18:21:25.373Z,40.23
2022-10-24T18:23:53.415Z,44.10
2022-10-24T18:26:23.408Z,46.40
2022-10-24T18:28:53.045Z,48.23
2022-10-24T18:31:24.652Z,52.30
2022-10-24T18:33:52.310Z,43.97
2022-10-24T18:36:22.622Z,46.90
2022-10-24T18:38:50.176Z,49.60
2022-10-24T18:41:46.963Z,54.97
2022-10-24T18:44:42.520Z,48.93
2022-10-24T18:47:16.018Z,56.17
2022-10-24T18:49:43.733Z,47.20
2022-10-24T18:52:37.743Z,51.43
2022-10-24T18:55:17.124Z,51.90
2022-10-24T18:57:45.066Z,52.30
2022-10-24T19:00:15.801Z,54.13
2022-10-24T19:03:14.181Z,49.57
2022-10-24T19:05:55.359Z,54.63
2022-10-24T19:08:25.448Z,53.27
2022-10-24T19:10:55.268Z,50.37
2022-10-24T19:13:25.127Z,51.97
2022-10-24T19:15:57.894Z,49.37
2022-10-24T19:18:27.145Z,49.20
2022-10-24T19:20:54.594Z,54.27
2022-10-24T19:23:21.990Z,50.83
2022-10-24T19:25:49.372Z,53.73
2022-10-24T19:28:18.314Z,53.43
2022-10-24T19:30:47.164Z,51.37
2022-10-24T19:33:15.522Z,50.27
2022-10-24T19:35:47.442Z,58.70
2022-10-24T19:38:15.805Z,57.93
2022-10-24T19:40:52.961Z,53.57
2022-10-24T19:43:21.377Z,54.10
2022-10-24T19:46:06.750Z,57.60
2022-10-24T19:48:37.849Z,49.27
2022-10-24T19:51:06.612Z,58.07
2022-10-24T19:53:35.977Z,51.70
2022-10-24T19:56:06.576Z,51.23
2022-10-24T19:58:34.169Z,50.93
2022-10-24T20:01:10.983Z,55.90
2022-10-24T20:03:40.483Z,45.87
2022-10-24T20:06:08.280Z,50.93
2022-10-24T20:08:36.084Z,56.93
2022-10-24T20:11:04.618Z,51.43
2022-10-24T20:13:32.173Z,57.23
2022-10-24T20:16:03.076Z,52.73
2022-10-24T20:18:30.900Z,54.73
2022-10-24T20:20:59.027Z,52.20
2022-10-24T20:23:26.569Z,50.97
2022-10-24T20:26:13.345Z,55.30
2022-10-24T20:28:43.576Z,56.97
2022-10-24T20:31:31.885Z,50.40
2022-10-24T20:34:07.963Z,61.60
2022-10-24T20:36:37.943Z,53.50
2022-10-24T20:39:05.676Z,55.37
2022-10-24T20:41:33.618Z,60.20
2022-10-24T20:44:00.993Z,58.27
2022-10-24T20:46:28.547Z,62.80
2022-10-24T20:48:58.429Z,52.20
2022-10-24T20:51:25.828Z,58.70
2022-10-24T20:53:53.182Z,55.17
2022-10-24T20:56:22.620Z,55.50
2022-10-24T20:58:51.102Z,62.70
2022-10-24T21:01:22.618Z,51.83
2022-10-24T21:03:51.224Z,58.50
2022-10-24T21:06:39.564Z,54.53
2022-10-24T21:09:07.477Z,45.30
2022-10-24T21:11:35.583Z,47.97
2022-10-24T21:14:06.565Z,48.47
2022-10-24T21:16:34.858Z,59.57
2022-10-24T21:19:02.524Z,58.07
2022-10-24T21:21:30.064Z,57.20
2022-10-24T21:24:02.446Z,52.83
2022-10-24T21:26:33.344Z,53.30
2022-10-24T21:29:14.520Z,55.33
2022-10-24T21:31:50.320Z,52.70
2022-10-24T21:34:18.212Z,43.90
2022-10-24T21:36:45.578Z,49.93
2022-10-24T21:39:14.106Z,49.83
2022-10-24T21:41:41.699Z,56.03
2022-10-24T21:44:11.692Z,51.30
2022-10-24T21:46:39.131Z,50.27
2022-10-24T21:49:06.525Z,48.83
2022-10-24T21:51:36.338Z,48.33
2022-10-24T21:54:06.881Z,37.53
2022-10-24T21:56:36.933Z,51.90
2022-10-24T21:59:06.272Z,44.07
2022-10-24T22:01:36.141Z,41.03
2022-10-24T22:04:05.486Z,40.70
2022-10-24T22:06:33.998Z,37.03
2022-10-24T22:09:01.513Z,40.03
2022-10-24T22:11:30.947Z,43.13
2022-10-24T22:13:58.615Z,38.37
2022-10-24T22:16:27.979Z,36.87
2022-10-24T22:18:55.506Z,37.67
2022-10-24T22:21:43.463Z,38.97
2022-10-24T22:24:13.916Z,36.17
2022-10-24T22:26:42.067Z,38.67
2022-10-24T22:29:10.976Z,40.27
2022-10-24T22:31:38.626Z,39.53
2022-10-24T22:34:06.163Z,32.83
2022-10-24T22:37:13.152Z,34.53
2022-10-24T22:39:40.996Z,34.37
2022-10-24T22:42:12.415Z,33.93
2022-10-24T22:44:42.441Z,34.27
2022-10-24T22:47:35.426Z,36.23
2022-10-24T22:50:42.205Z,34.50
2022-10-24T22:53:13.138Z,34.67
2022-10-24T22:55:54.654Z,37.87
2022-10-24T22:58:22.316Z,32.07
2022-10-24T23:00:54.769Z,33.03
2022-10-24T23:03:49.584Z,28.23
2022-10-24T23:06:27.057Z,37.40
2022-10-24T23:08:54.355Z,30.03
2022-10-24T23:11:21.867Z,33.97
2022-10-24T23:13:49.290Z,29.90
2022-10-24T23:16:42.604Z,27.13
2022-10-24T23:19:28.365Z,31.20
2022-10-24T23:22:35.217Z,29.67
2022-10-24T23:25:02.970Z,29.57
2022-10-24T23:27:52.259Z,28.10
2022-10-24T23:30:23.210Z,30.83
2022-10-24T23:32:51.610Z,27.60
2022-10-24T23:35:20.437Z,23.47
2022-10-24T23:37:50.077Z,23.23
2022-10-24T23:40:37.259Z,27.43
2022-10-24T23:43:05.322Z,27.97
2022-10-24T23:45:43.955Z,24.83
2022-10-24T23:48:38.961Z,28.40
2022-10-24T23:51:31.287Z,26.27
2022-10-24T23:53:58.848Z,27.27
2022-10-24T23:56:28.631Z,23.47
2022-10-24T23:58:56.313Z,24.10
